sensor_id;sensor_type;location;lat;lon;timestamp;P1;durP1;ratioP1;P2;durP2;ratioP2
41693;SDS011;27377;50.666;9.150;2022-12-20T00:01:17;15.90;;;9.65;;
41693;SDS011;27377;50.666;9.150;2022-12-20T00:03:45;14.00;;;9.02;;
41693;SDS011;27377;50.666;9.150;2022-12-20T00:06:12;14.85;;;9.85;;
41693;SDS011;27377;50.666;9.150;2022-12-20T00:08:39;15.63;;;9.60;;
41693;SDS011;27377;50.666;9.150;2022-12-20T00:11:05;14.88;;;9.38;;
41693;SDS011;27377;50.666;9.150;2022-12-20T00:13:32;16.67;;;9.70;;
41693;SDS011;27377;50.666;9.150;2022-12-20T00:16:02;16.45;;;9.73;;
41693;SDS011;27377;50.666;9.150;2022-12-20T00:18:36;15.75;;;9.43;;
41693;SDS011;27377;50.666;9.150;2022-12-20T00:21:03;17.48;;;10.05;;
41693;SDS011;27377;50.666;9.150;2022-12-20T00:23:30;15.00;;;10.07;;
41693;SDS011;27377;50.666;9.150;2022-12-20T00:26:09;15.65;;;10.32;;
41693;SDS011;27377;50.666;9.150;2022-12-20T00:28:37;15.95;;;10.20;;
41693;SDS011;27377;50.666;9.150;2022-12-20T00:31:04;15.83;;;9.97;;
41693;SDS011;27377;50.666;9.150;2022-12-20T00:33:31;17.02;;;9.82;;
41693;SDS011;27377;50.666;9.150;2022-12-20T00:35:58;14.93;;;8.90;;
41693;SDS011;27377;50.666;9.150;2022-12-20T00:38:24;16.63;;;9.87;;
41693;SDS011;27377;50.666;9.150;2022-12-20T00:43:32;17.33;;;9.80;;
41693;SDS011;27377;50.666;9.150;2022-12-20T00:45:58;15.18;;;8.90;;
41693;SDS011;27377;50.666;9.150;2022-12-20T00:48:25;14.05;;;8.73;;
41693;SDS011;27377;50.666;9.150;2022-12-20T00:50:51;15.43;;;9.07;;
41693;SDS011;27377;50.666;9.150;2022-12-20T00:53:17;15.30;;;8.90;;
41693;SDS011;27377;50.666;9.150;2022-12-20T00:55:43;13.55;;;8.70;;
41693;SDS011;27377;50.666;9.150;2022-12-20T00:58:10;15.13;;;8.90;;
41693;SDS011;27377;50.666;9.150;2022-12-20T01:00:37;12.95;;;8.40;;
41693;SDS011;27377;50.666;9.150;2022-12-20T01:03:03;12.45;;;8.60;;
41693;SDS011;27377;50.666;9.150;2022-12-20T01:05:29;14.33;;;8.50;;
41693;SDS011;27377;50.666;9.150;2022-12-20T01:07:55;13.70;;;8.35;;
41693;SDS011;27377;50.666;9.150;2022-12-20T01:10:20;14.80;;;8.00;;
41693;SDS011;27377;50.666;9.150;2022-12-20T01:12:46;13.07;;;8.13;;
41693;SDS011;27377;50.666;9.150;2022-12-20T01:15:12;13.80;;;8.17;;
41693;SDS011;27377;50.666;9.150;2022-12-20T01:17:37;14.70;;;7.60;;
41693;SDS011;27377;50.666;9.150;2022-12-20T01:20:03;14.17;;;8.13;;
41693;SDS011;27377;50.666;9.150;2022-12-20T01:22:30;12.70;;;7.70;;
41693;SDS011;27377;50.666;9.150;2022-12-20T01:24:55;12.98;;;7.50;;
41693;SDS011;27377;50.666;9.150;2022-12-20T01:27:21;13.55;;;7.93;;
41693;SDS011;27377;50.666;9.150;2022-12-20T01:29:46;12.77;;;7.72;;
41693;SDS011;27377;50.666;9.150;2022-12-20T01:32:12;12.73;;;7.63;;
41693;SDS011;27377;50.666;9.150;2022-12-20T01:34:38;13.00;;;6.90;;
41693;SDS011;27377;50.666;9.150;2022-12-20T01:37:03;12.53;;;7.10;;
41693;SDS011;27377;50.666;9.150;2022-12-20T01:39:29;12.20;;;6.90;;
41693;SDS011;27377;50.666;9.150;2022-12-20T01:41:54;10.17;;;6.53;;
41693;SDS011;27377;50.666;9.150;2022-12-20T01:46:46;12.87;;;7.30;;
41693;SDS011;27377;50.666;9.150;2022-12-20T01:49:17;11.18;;;6.63;;
41693;SDS011;27377;50.666;9.150;2022-12-20T01:51:46;11.65;;;6.57;;
41693;SDS011;27377;50.666;9.150;2022-12-20T01:54:16;11.40;;;6.32;;
41693;SDS011;27377;50.666;9.150;2022-12-20T01:56:47;10.85;;;6.70;;
41693;SDS011;27377;50.666;9.150;2022-12-20T01:59:16;14.68;;;6.47;;
41693;SDS011;27377;50.666;9.150;2022-12-20T02:01:43;12.35;;;7.10;;
41693;SDS011;27377;50.666;9.150;2022-12-20T02:04:09;11.10;;;7.13;;
41693;SDS011;27377;50.666;9.150;2022-12-20T02:06:34;9.82;;;6.20;;
41693;SDS011;27377;50.666;9.150;2022-12-20T02:09:00;11.88;;;6.78;;
41693;SDS011;27377;50.666;9.150;2022-12-20T02:14:41;12.70;;;6.87;;
41693;SDS011;27377;50.666;9.150;2022-12-20T02:17:35;12.35;;;6.93;;
41693;SDS011;27377;50.666;9.150;2022-12-20T02:27:02;11.90;;;7.30;;
41693;SDS011;27377;50.666;9.150;2022-12-20T02:31:49;12.27;;;7.60;;
41693;SDS011;27377;50.666;9.150;2022-12-20T02:34:24;12.23;;;7.25;;
41693;SDS011;27377;50.666;9.150;2022-12-20T02:36:51;12.93;;;7.40;;
41693;SDS011;27377;50.666;9.150;2022-12-20T02:39:17;12.60;;;7.50;;
41693;SDS011;27377;50.666;9.150;2022-12-20T02:41:44;11.97;;;7.27;;
41693;SDS011;27377;50.666;9.150;2022-12-20T02:44:17;14.07;;;8.20;;
41693;SDS011;27377;50.666;9.150;2022-12-20T02:47:04;14.15;;;7.95;;
41693;SDS011;27377;50.666;9.150;2022-12-20T02:49:34;11.65;;;7.32;;
41693;SDS011;27377;50.666;9.150;2022-12-20T02:52:05;13.05;;;7.50;;
41693;SDS011;27377;50.666;9.150;2022-12-20T02:54:33;11.95;;;7.38;;
41693;SDS011;27377;50.666;9.150;2022-12-20T03:00:05;12.37;;;7.00;;
41693;SDS011;27377;50.666;9.150;2022-12-20T03:02:37;12.38;;;7.30;;
41693;SDS011;27377;50.666;9.150;2022-12-20T03:05:27;13.18;;;7.97;;
41693;SDS011;27377;50.666;9.150;2022-12-20T03:07:53;11.27;;;6.95;;
41693;SDS011;27377;50.666;9.150;2022-12-20T03:10:19;11.38;;;6.65;;
41693;SDS011;27377;50.666;9.150;2022-12-20T03:12:45;13.07;;;6.90;;
41693;SDS011;27377;50.666;9.150;2022-12-20T03:15:11;11.53;;;6.70;;
41693;SDS011;27377;50.666;9.150;2022-12-20T03:17:37;10.60;;;6.33;;
41693;SDS011;27377;50.666;9.150;2022-12-20T03:20:03;10.03;;;6.13;;
41693;SDS011;27377;50.666;9.150;2022-12-20T03:22:33;10.52;;;6.28;;
41693;SDS011;27377;50.666;9.150;2022-12-20T03:24:59;11.82;;;6.20;;
41693;SDS011;27377;50.666;9.150;2022-12-20T03:27:28;11.03;;;6.20;;
41693;SDS011;27377;50.666;9.150;2022-12-20T03:29:53;10.63;;;5.97;;
41693;SDS011;27377;50.666;9.150;2022-12-20T03:32:19;10.88;;;6.13;;
41693;SDS011;27377;50.666;9.150;2022-12-20T03:34:48;10.20;;;5.80;;
41693;SDS011;27377;50.666;9.150;2022-12-20T03:37:14;10.68;;;6.15;;
41693;SDS011;27377;50.666;9.150;2022-12-20T03:39:40;10.48;;;6.28;;
41693;SDS011;27377;50.666;9.150;2022-12-20T03:42:06;10.00;;;5.93;;
41693;SDS011;27377;50.666;9.150;2022-12-20T03:44:32;9.20;;;5.70;;
41693;SDS011;27377;50.666;9.150;2022-12-20T03:46:58;9.75;;;6.13;;
41693;SDS011;27377;50.666;9.150;2022-12-20T03:49:23;10.75;;;5.95;;
41693;SDS011;27377;50.666;9.150;2022-12-20T03:51:49;9.63;;;6.00;;
41693;SDS011;27377;50.666;9.150;2022-12-20T03:54:15;11.20;;;6.43;;
41693;SDS011;27377;50.666;9.150;2022-12-20T03:56:40;8.87;;;5.80;;
41693;SDS011;27377;50.666;9.150;2022-12-20T03:59:06;9.73;;;5.85;;
41693;SDS011;27377;50.666;9.150;2022-12-20T04:01:31;9.73;;;6.00;;
41693;SDS011;27377;50.666;9.150;2022-12-20T04:04:01;10.48;;;6.07;;
41693;SDS011;27377;50.666;9.150;2022-12-20T04:06:26;10.18;;;6.00;;
41693;SDS011;27377;50.666;9.150;2022-12-20T04:08:53;10.10;;;6.25;;
41693;SDS011;27377;50.666;9.150;2022-12-20T04:11:18;10.63;;;6.13;;
41693;SDS011;27377;50.666;9.150;2022-12-20T04:13:45;10.53;;;6.00;;
41693;SDS011;27377;50.666;9.150;2022-12-20T04:16:15;10.07;;;6.03;;
41693;SDS011;27377;50.666;9.150;2022-12-20T04:18:44;10.93;;;6.10;;
41693;SDS011;27377;50.666;9.150;2022-12-20T04:21:10;9.30;;;6.13;;
41693;SDS011;27377;50.666;9.150;2022-12-20T04:23:37;9.17;;;6.17;;
41693;SDS011;27377;50.666;9.150;2022-12-20T04:26:04;10.25;;;6.13;;
41693;SDS011;27377;50.666;9.150;2022-12-20T04:28:31;8.95;;;5.50;;
41693;SDS011;27377;50.666;9.150;2022-12-20T04:30:57;10.20;;;5.80;;
41693;SDS011;27377;50.666;9.150;2022-12-20T04:33:24;9.60;;;6.00;;
41693;SDS011;27377;50.666;9.150;2022-12-20T04:35:50;9.87;;;5.87;;
41693;SDS011;27377;50.666;9.150;2022-12-20T04:38:16;9.10;;;5.75;;
41693;SDS011;27377;50.666;9.150;2022-12-20T04:40:42;10.38;;;5.88;;
41693;SDS011;27377;50.666;9.150;2022-12-20T04:43:08;10.63;;;6.00;;
41693;SDS011;27377;50.666;9.150;2022-12-20T04:45:34;9.73;;;6.00;;
41693;SDS011;27377;50.666;9.150;2022-12-20T04:47:59;10.77;;;6.33;;
41693;SDS011;27377;50.666;9.150;2022-12-20T04:50:25;13.30;;;6.60;;
41693;SDS011;27377;50.666;9.150;2022-12-20T04:52:52;10.20;;;6.07;;
41693;SDS011;27377;50.666;9.150;2022-12-20T04:55:37;9.68;;;6.00;;
41693;SDS011;27377;50.666;9.150;2022-12-20T04:58:03;10.77;;;6.47;;
41693;SDS011;27377;50.666;9.150;2022-12-20T05:00:30;11.68;;;6.10;;
41693;SDS011;27377;50.666;9.150;2022-12-20T05:02:56;9.80;;;6.23;;
41693;SDS011;27377;50.666;9.150;2022-12-20T05:05:21;10.55;;;6.03;;
41693;SDS011;27377;50.666;9.150;2022-12-20T05:07:47;9.63;;;6.10;;
41693;SDS011;27377;50.666;9.150;2022-12-20T05:10:13;10.90;;;6.65;;
41693;SDS011;27377;50.666;9.150;2022-12-20T05:12:38;8.88;;;5.97;;
41693;SDS011;27377;50.666;9.150;2022-12-20T05:15:04;10.47;;;6.80;;
41693;SDS011;27377;50.666;9.150;2022-12-20T05:17:31;10.35;;;6.03;;
41693;SDS011;27377;50.666;9.150;2022-12-20T05:19:57;10.43;;;6.47;;
41693;SDS011;27377;50.666;9.150;2022-12-20T05:22:23;10.70;;;6.10;;
41693;SDS011;27377;50.666;9.150;2022-12-20T05:25:08;9.73;;;5.93;;
41693;SDS011;27377;50.666;9.150;2022-12-20T05:27:53;11.33;;;6.67;;
41693;SDS011;27377;50.666;9.150;2022-12-20T05:30:19;11.05;;;7.07;;
41693;SDS011;27377;50.666;9.150;2022-12-20T05:32:44;12.27;;;7.43;;
41693;SDS011;27377;50.666;9.150;2022-12-20T05:35:10;11.13;;;7.22;;
41693;SDS011;27377;50.666;9.150;2022-12-20T05:37:39;10.02;;;6.25;;
41693;SDS011;27377;50.666;9.150;2022-12-20T05:40:04;10.13;;;6.35;;
41693;SDS011;27377;50.666;9.150;2022-12-20T05:42:30;11.90;;;6.82;;
41693;SDS011;27377;50.666;9.150;2022-12-20T05:44:59;14.43;;;8.40;;
41693;SDS011;27377;50.666;9.150;2022-12-20T05:47:25;15.88;;;9.93;;
41693;SDS011;27377;50.666;9.150;2022-12-20T05:49:51;15.73;;;9.70;;
41693;SDS011;27377;50.666;9.150;2022-12-20T05:52:17;17.80;;;11.05;;
41693;SDS011;27377;50.666;9.150;2022-12-20T05:54:42;18.20;;;11.00;;
41693;SDS011;27377;50.666;9.150;2022-12-20T05:57:08;19.17;;;11.63;;
41693;SDS011;27377;50.666;9.150;2022-12-20T05:59:34;20.10;;;12.07;;
41693;SDS011;27377;50.666;9.150;2022-12-20T06:01:59;21.27;;;12.50;;
41693;SDS011;27377;50.666;9.150;2022-12-20T06:04:25;19.63;;;12.60;;
41693;SDS011;27377;50.666;9.150;2022-12-20T06:06:51;20.33;;;12.45;;
41693;SDS011;27377;50.666;9.150;2022-12-20T06:09:16;18.08;;;12.15;;
41693;SDS011;27377;50.666;9.150;2022-12-20T06:11:44;15.68;;;10.18;;
41693;SDS011;27377;50.666;9.150;2022-12-20T06:14:11;14.00;;;9.40;;
41693;SDS011;27377;50.666;9.150;2022-12-20T06:16:37;14.93;;;8.63;;
41693;SDS011;27377;50.666;9.150;2022-12-20T06:19:05;13.60;;;8.60;;
41693;SDS011;27377;50.666;9.150;2022-12-20T06:21:30;14.23;;;8.70;;
41693;SDS011;27377;50.666;9.150;2022-12-20T06:23:56;12.67;;;7.93;;
41693;SDS011;27377;50.666;9.150;2022-12-20T06:26:21;12.77;;;7.70;;
41693;SDS011;27377;50.666;9.150;2022-12-20T06:28:47;11.97;;;7.40;;
41693;SDS011;27377;50.666;9.150;2022-12-20T06:31:16;13.50;;;7.80;;
41693;SDS011;27377;50.666;9.150;2022-12-20T06:33:42;12.60;;;8.30;;
41693;SDS011;27377;50.666;9.150;2022-12-20T06:36:08;19.52;;;9.75;;
41693;SDS011;27377;50.666;9.150;2022-12-20T06:38:34;17.00;;;9.37;;
41693;SDS011;27377;50.666;9.150;2022-12-20T06:41:00;17.70;;;9.57;;
41693;SDS011;27377;50.666;9.150;2022-12-20T06:43:29;15.93;;;9.88;;
41693;SDS011;27377;50.666;9.150;2022-12-20T06:45:54;13.80;;;8.93;;
41693;SDS011;27377;50.666;9.150;2022-12-20T06:48:22;14.73;;;9.43;;
41693;SDS011;27377;50.666;9.150;2022-12-20T06:50:48;15.95;;;9.98;;
41693;SDS011;27377;50.666;9.150;2022-12-20T06:53:14;16.38;;;10.48;;
41693;SDS011;27377;50.666;9.150;2022-12-20T06:55:39;15.98;;;10.10;;
41693;SDS011;27377;50.666;9.150;2022-12-20T06:58:05;15.13;;;9.68;;
41693;SDS011;27377;50.666;9.150;2022-12-20T07:00:31;16.52;;;10.07;;
41693;SDS011;27377;50.666;9.150;2022-12-20T07:02:57;19.43;;;11.60;;
41693;SDS011;27377;50.666;9.150;2022-12-20T07:05:22;18.95;;;12.35;;
41693;SDS011;27377;50.666;9.150;2022-12-20T07:07:48;17.20;;;10.95;;
41693;SDS011;27377;50.666;9.150;2022-12-20T07:10:14;16.02;;;10.27;;
41693;SDS011;27377;50.666;9.150;2022-12-20T07:12:40;15.73;;;9.77;;
41693;SDS011;27377;50.666;9.150;2022-12-20T07:15:05;16.40;;;10.13;;
41693;SDS011;27377;50.666;9.150;2022-12-20T07:17:32;14.85;;;9.18;;
41693;SDS011;27377;50.666;9.150;2022-12-20T07:19:58;13.73;;;8.70;;
41693;SDS011;27377;50.666;9.150;2022-12-20T07:22:24;14.57;;;8.75;;
41693;SDS011;27377;50.666;9.150;2022-12-20T07:24:50;13.07;;;7.83;;
41693;SDS011;27377;50.666;9.150;2022-12-20T07:27:16;13.43;;;7.93;;
41693;SDS011;27377;50.666;9.150;2022-12-20T07:29:41;13.10;;;7.85;;
41693;SDS011;27377;50.666;9.150;2022-12-20T07:32:07;12.40;;;7.20;;
41693;SDS011;27377;50.666;9.150;2022-12-20T07:34:35;13.07;;;7.80;;
41693;SDS011;27377;50.666;9.150;2022-12-20T07:37:01;11.25;;;7.15;;
41693;SDS011;27377;50.666;9.150;2022-12-20T07:39:27;11.73;;;6.97;;
41693;SDS011;27377;50.666;9.150;2022-12-20T07:41:53;11.07;;;6.80;;
41693;SDS011;27377;50.666;9.150;2022-12-20T07:44:19;11.60;;;7.28;;
41693;SDS011;27377;50.666;9.150;2022-12-20T07:46:45;12.10;;;6.88;;
41693;SDS011;27377;50.666;9.150;2022-12-20T07:49:11;9.73;;;5.97;;
41693;SDS011;27377;50.666;9.150;2022-12-20T07:51:38;11.25;;;6.20;;
41693;SDS011;27377;50.666;9.150;2022-12-20T07:54:11;10.30;;;6.10;;
41693;SDS011;27377;50.666;9.150;2022-12-20T07:56:43;10.18;;;6.15;;
41693;SDS011;27377;50.666;9.150;2022-12-20T07:59:11;9.20;;;5.70;;
41693;SDS011;27377;50.666;9.150;2022-12-20T08:01:40;9.63;;;5.68;;
41693;SDS011;27377;50.666;9.150;2022-12-20T08:04:09;8.70;;;5.57;;
41693;SDS011;27377;50.666;9.150;2022-12-20T08:06:38;9.32;;;5.28;;
41693;SDS011;27377;50.666;9.150;2022-12-20T08:09:05;9.57;;;6.00;;
41693;SDS011;27377;50.666;9.150;2022-12-20T08:11:34;10.45;;;5.65;;
41693;SDS011;27377;50.666;9.150;2022-12-20T08:14:01;7.50;;;5.30;;
41693;SDS011;27377;50.666;9.150;2022-12-20T08:16:28;8.63;;;5.43;;
41693;SDS011;27377;50.666;9.150;2022-12-20T08:18:55;8.35;;;5.57;;
41693;SDS011;27377;50.666;9.150;2022-12-20T08:21:21;9.13;;;5.88;;
41693;SDS011;27377;50.666;9.150;2022-12-20T08:23:46;9.30;;;5.47;;
41693;SDS011;27377;50.666;9.150;2022-12-20T08:26:12;11.10;;;5.77;;
41693;SDS011;27377;50.666;9.150;2022-12-20T08:28:38;9.20;;;5.37;;
41693;SDS011;27377;50.666;9.150;2022-12-20T08:31:05;8.93;;;5.68;;
41693;SDS011;27377;50.666;9.150;2022-12-20T08:33:32;10.53;;;6.13;;
41693;SDS011;27377;50.666;9.150;2022-12-20T08:35:59;8.77;;;5.35;;
41693;SDS011;27377;50.666;9.150;2022-12-20T08:38:29;9.07;;;5.50;;
41693;SDS011;27377;50.666;9.150;2022-12-20T08:41:00;9.00;;;5.20;;
41693;SDS011;27377;50.666;9.150;2022-12-20T08:43:32;8.90;;;5.15;;
41693;SDS011;27377;50.666;9.150;2022-12-20T08:45:58;7.22;;;4.72;;
41693;SDS011;27377;50.666;9.150;2022-12-20T08:48:25;8.00;;;4.75;;
41693;SDS011;27377;50.666;9.150;2022-12-20T08:50:57;9.13;;;4.57;;
41693;SDS011;27377;50.666;9.150;2022-12-20T08:53:25;7.47;;;4.43;;
41693;SDS011;27377;50.666;9.150;2022-12-20T08:55:52;8.00;;;4.80;;
41693;SDS011;27377;50.666;9.150;2022-12-20T08:58:19;10.40;;;6.13;;
41693;SDS011;27377;50.666;9.150;2022-12-20T09:00:45;8.77;;;5.00;;
41693;SDS011;27377;50.666;9.150;2022-12-20T09:03:11;9.63;;;5.10;;
41693;SDS011;27377;50.666;9.150;2022-12-20T09:05:45;11.35;;;6.10;;
41693;SDS011;27377;50.666;9.150;2022-12-20T09:08:11;8.35;;;5.10;;
41693;SDS011;27377;50.666;9.150;2022-12-20T09:10:38;9.07;;;5.50;;
41693;SDS011;27377;50.666;9.150;2022-12-20T09:13:04;10.38;;;5.72;;
41693;SDS011;27377;50.666;9.150;2022-12-20T09:15:29;7.53;;;4.90;;
41693;SDS011;27377;50.666;9.150;2022-12-20T09:17:55;8.38;;;5.28;;
41693;SDS011;27377;50.666;9.150;2022-12-20T09:20:22;8.75;;;5.00;;
41693;SDS011;27377;50.666;9.150;2022-12-20T09:22:47;7.28;;;4.53;;
41693;SDS011;27377;50.666;9.150;2022-12-20T09:25:13;7.60;;;4.63;;
41693;SDS011;27377;50.666;9.150;2022-12-20T09:27:38;7.40;;;4.33;;
41693;SDS011;27377;50.666;9.150;2022-12-20T09:30:04;8.63;;;4.27;;
41693;SDS011;27377;50.666;9.150;2022-12-20T09:32:30;8.00;;;4.38;;
41693;SDS011;27377;50.666;9.150;2022-12-20T09:34:56;7.80;;;4.57;;
41693;SDS011;27377;50.666;9.150;2022-12-20T09:37:21;7.45;;;4.25;;
41693;SDS011;27377;50.666;9.150;2022-12-20T09:39:47;8.00;;;4.57;;
41693;SDS011;27377;50.666;9.150;2022-12-20T09:42:14;9.82;;;4.72;;
41693;SDS011;27377;50.666;9.150;2022-12-20T09:44:40;9.88;;;4.68;;
41693;SDS011;27377;50.666;9.150;2022-12-20T09:47:08;11.90;;;5.38;;
41693;SDS011;27377;50.666;9.150;2022-12-20T09:49:49;11.15;;;5.40;;
41693;SDS011;27377;50.666;9.150;2022-12-20T10:00:25;6.88;;;3.95;;
41693;SDS011;27377;50.666;9.150;2022-12-20T10:02:52;6.45;;;4.03;;
41693;SDS011;27377;50.666;9.150;2022-12-20T10:05:24;7.20;;;3.85;;
41693;SDS011;27377;50.666;9.150;2022-12-20T10:08:06;6.38;;;3.50;;
41693;SDS011;27377;50.666;9.150;2022-12-20T10:10:54;6.72;;;3.70;;
41693;SDS011;27377;50.666;9.150;2022-12-20T10:16:35;7.13;;;3.72;;
41693;SDS011;27377;50.666;9.150;2022-12-20T10:21:45;6.20;;;3.50;;
41693;SDS011;27377;50.666;9.150;2022-12-20T10:24:19;7.82;;;3.30;;
41693;SDS011;27377;50.666;9.150;2022-12-20T10:26:49;5.75;;;3.50;;
41693;SDS011;27377;50.666;9.150;2022-12-20T10:29:16;6.22;;;3.47;;
41693;SDS011;27377;50.666;9.150;2022-12-20T10:31:42;8.00;;;3.60;;
41693;SDS011;27377;50.666;9.150;2022-12-20T10:34:07;8.50;;;4.60;;
41693;SDS011;27377;50.666;9.150;2022-12-20T10:36:34;11.30;;;6.00;;
41693;SDS011;27377;50.666;9.150;2022-12-20T10:39:07;18.27;;;9.13;;
41693;SDS011;27377;50.666;9.150;2022-12-20T10:44:25;10.85;;;5.65;;
41693;SDS011;27377;50.666;9.150;2022-12-20T10:46:54;8.70;;;4.95;;
41693;SDS011;27377;50.666;9.150;2022-12-20T10:49:28;7.85;;;4.40;;
41693;SDS011;27377;50.666;9.150;2022-12-20T10:51:55;7.35;;;3.78;;
41693;SDS011;27377;50.666;9.150;2022-12-20T10:54:27;6.75;;;3.53;;
41693;SDS011;27377;50.666;9.150;2022-12-20T10:56:57;7.40;;;4.00;;
41693;SDS011;27377;50.666;9.150;2022-12-20T11:01:52;6.88;;;3.53;;
41693;SDS011;27377;50.666;9.150;2022-12-20T11:04:35;6.57;;;3.30;;
41693;SDS011;27377;50.666;9.150;2022-12-20T11:07:03;6.38;;;3.17;;
41693;SDS011;27377;50.666;9.150;2022-12-20T11:09:52;4.90;;;3.00;;
41693;SDS011;27377;50.666;9.150;2022-12-20T11:12:21;6.20;;;3.40;;
41693;SDS011;27377;50.666;9.150;2022-12-20T11:14:47;6.40;;;3.00;;
41693;SDS011;27377;50.666;9.150;2022-12-20T11:27:40;6.03;;;3.33;;
41693;SDS011;27377;50.666;9.150;2022-12-20T11:33:39;6.68;;;3.33;;
41693;SDS011;27377;50.666;9.150;2022-12-20T11:41:37;8.30;;;3.23;;
41693;SDS011;27377;50.666;9.150;2022-12-20T11:44:35;5.78;;;3.55;;
41693;SDS011;27377;50.666;9.150;2022-12-20T11:52:48;5.30;;;3.05;;
41693;SDS011;27377;50.666;9.150;2022-12-20T11:55:24;7.47;;;3.63;;
41693;SDS011;27377;50.666;9.150;2022-12-20T11:58:16;5.82;;;3.40;;
41693;SDS011;27377;50.666;9.150;2022-12-20T12:00:53;6.85;;;3.65;;
41693;SDS011;27377;50.666;9.150;2022-12-20T12:03:34;7.00;;;3.53;;
41693;SDS011;27377;50.666;9.150;2022-12-20T12:06:15;6.35;;;3.60;;
41693;SDS011;27377;50.666;9.150;2022-12-20T12:11:31;7.77;;;3.40;;
41693;SDS011;27377;50.666;9.150;2022-12-20T12:14:02;6.03;;;3.40;;
41693;SDS011;27377;50.666;9.150;2022-12-20T12:16:34;5.97;;;3.70;;
41693;SDS011;27377;50.666;9.150;2022-12-20T12:19:04;6.40;;;3.40;;
41693;SDS011;27377;50.666;9.150;2022-12-20T12:21:36;5.93;;;3.30;;
41693;SDS011;27377;50.666;9.150;2022-12-20T12:24:17;7.33;;;4.00;;
41693;SDS011;27377;50.666;9.150;2022-12-20T12:26:49;7.23;;;3.77;;
41693;SDS011;27377;50.666;9.150;2022-12-20T12:29:16;6.18;;;3.95;;
41693;SDS011;27377;50.666;9.150;2022-12-20T12:31:52;6.37;;;3.90;;
41693;SDS011;27377;50.666;9.150;2022-12-20T12:48:21;7.13;;;4.10;;
41693;SDS011;27377;50.666;9.150;2022-12-20T12:51:01;9.00;;;4.00;;
41693;SDS011;27377;50.666;9.150;2022-12-20T12:56:28;7.85;;;4.25;;
41693;SDS011;27377;50.666;9.150;2022-12-20T13:17:52;6.00;;;3.47;;
41693;SDS011;27377;50.666;9.150;2022-12-20T13:20:28;5.73;;;3.20;;
41693;SDS011;27377;50.666;9.150;2022-12-20T13:25:36;7.95;;;3.38;;
41693;SDS011;27377;50.666;9.150;2022-12-20T13:30:46;6.80;;;3.10;;
41693;SDS011;27377;50.666;9.150;2022-12-20T13:33:46;5.95;;;3.10;;
41693;SDS011;27377;50.666;9.150;2022-12-20T13:36:30;5.80;;;2.97;;
41693;SDS011;27377;50.666;9.150;2022-12-20T13:39:45;6.78;;;3.10;;
41693;SDS011;27377;50.666;9.150;2022-12-20T13:41:49;6.85;;;3.47;;
41693;SDS011;27377;50.666;9.150;2022-12-20T13:44:34;7.10;;;3.25;;
41693;SDS011;27377;50.666;9.150;2022-12-20T13:47:16;8.77;;;3.67;;
41693;SDS011;27377;50.666;9.150;2022-12-20T13:49:52;7.63;;;3.27;;
41693;SDS011;27377;50.666;9.150;2022-12-20T13:52:26;5.90;;;3.57;;
41693;SDS011;27377;50.666;9.150;2022-12-20T13:54:58;5.85;;;3.30;;
41693;SDS011;27377;50.666;9.150;2022-12-20T13:57:38;6.20;;;3.03;;
41693;SDS011;27377;50.666;9.150;2022-12-20T14:00:13;6.18;;;3.30;;
41693;SDS011;27377;50.666;9.150;2022-12-20T14:02:41;5.65;;;3.30;;
41693;SDS011;27377;50.666;9.150;2022-12-20T14:07:44;9.52;;;5.80;;
41693;SDS011;27377;50.666;9.150;2022-12-20T14:10:16;8.75;;;4.70;;
41693;SDS011;27377;50.666;9.150;2022-12-20T14:12:48;8.13;;;4.68;;
41693;SDS011;27377;50.666;9.150;2022-12-20T14:15:29;6.78;;;4.20;;
41693;SDS011;27377;50.666;9.150;2022-12-20T14:17:56;6.53;;;3.78;;
41693;SDS011;27377;50.666;9.150;2022-12-20T14:20:28;7.40;;;3.55;;
41693;SDS011;27377;50.666;9.150;2022-12-20T14:22:58;6.20;;;3.40;;
41693;SDS011;27377;50.666;9.150;2022-12-20T14:25:31;6.43;;;3.60;;
41693;SDS011;27377;50.666;9.150;2022-12-20T14:28:42;8.07;;;3.70;;
41693;SDS011;27377;50.666;9.150;2022-12-20T14:31:03;6.45;;;3.35;;
41693;SDS011;27377;50.666;9.150;2022-12-20T14:33:32;5.95;;;3.45;;
41693;SDS011;27377;50.666;9.150;2022-12-20T14:36:09;5.32;;;3.17;;
41693;SDS011;27377;50.666;9.150;2022-12-20T14:38:45;7.10;;;3.40;;
41693;SDS011;27377;50.666;9.150;2022-12-20T14:41:29;5.75;;;3.15;;
41693;SDS011;27377;50.666;9.150;2022-12-20T14:43:56;5.53;;;3.33;;
41693;SDS011;27377;50.666;9.150;2022-12-20T14:46:28;5.85;;;3.30;;
41693;SDS011;27377;50.666;9.150;2022-12-20T14:51:43;6.17;;;3.20;;
41693;SDS011;27377;50.666;9.150;2022-12-20T14:54:14;5.72;;;3.30;;
41693;SDS011;27377;50.666;9.150;2022-12-20T14:56:46;7.00;;;3.40;;
41693;SDS011;27377;50.666;9.150;2022-12-20T14:59:15;6.17;;;3.10;;
41693;SDS011;27377;50.666;9.150;2022-12-20T15:01:48;6.80;;;3.08;;
41693;SDS011;27377;50.666;9.150;2022-12-20T15:04:22;5.80;;;3.20;;
41693;SDS011;27377;50.666;9.150;2022-12-20T15:06:54;5.67;;;3.30;;
41693;SDS011;27377;50.666;9.150;2022-12-20T15:09:20;5.63;;;3.10;;
41693;SDS011;27377;50.666;9.150;2022-12-20T15:11:46;7.07;;;3.33;;
41693;SDS011;27377;50.666;9.150;2022-12-20T15:16:47;5.93;;;3.20;;
41693;SDS011;27377;50.666;9.150;2022-12-20T15:19:13;7.07;;;3.40;;
41693;SDS011;27377;50.666;9.150;2022-12-20T15:21:39;6.28;;;3.45;;
41693;SDS011;27377;50.666;9.150;2022-12-20T15:24:09;6.88;;;3.47;;
41693;SDS011;27377;50.666;9.150;2022-12-20T15:26:37;6.10;;;3.40;;
41693;SDS011;27377;50.666;9.150;2022-12-20T15:29:03;6.47;;;3.50;;
41693;SDS011;27377;50.666;9.150;2022-12-20T15:31:29;6.75;;;3.60;;
41693;SDS011;27377;50.666;9.150;2022-12-20T15:33:57;5.97;;;3.50;;
41693;SDS011;27377;50.666;9.150;2022-12-20T15:36:23;7.60;;;4.53;;
41693;SDS011;27377;50.666;9.150;2022-12-20T15:38:52;8.20;;;4.53;;
41693;SDS011;27377;50.666;9.150;2022-12-20T15:41:25;9.55;;;5.68;;
41693;SDS011;27377;50.666;9.150;2022-12-20T15:44:02;8.65;;;5.15;;
41693;SDS011;27377;50.666;9.150;2022-12-20T15:46:29;9.27;;;5.20;;
41693;SDS011;27377;50.666;9.150;2022-12-20T15:48:55;9.10;;;5.30;;
41693;SDS011;27377;50.666;9.150;2022-12-20T15:51:31;9.15;;;5.47;;
41693;SDS011;27377;50.666;9.150;2022-12-20T15:54:00;8.65;;;4.53;;
41693;SDS011;27377;50.666;9.150;2022-12-20T15:56:28;9.00;;;4.80;;
41693;SDS011;27377;50.666;9.150;2022-12-20T15:58:54;7.57;;;4.87;;
41693;SDS011;27377;50.666;9.150;2022-12-20T16:01:21;9.20;;;4.50;;
41693;SDS011;27377;50.666;9.150;2022-12-20T16:03:51;7.75;;;4.43;;
41693;SDS011;27377;50.666;9.150;2022-12-20T16:06:16;9.10;;;4.27;;
41693;SDS011;27377;50.666;9.150;2022-12-20T16:08:42;8.52;;;4.43;;
41693;SDS011;27377;50.666;9.150;2022-12-20T16:11:21;8.07;;;4.22;;
41693;SDS011;27377;50.666;9.150;2022-12-20T16:13:52;6.88;;;4.03;;
41693;SDS011;27377;50.666;9.150;2022-12-20T16:16:21;6.93;;;4.30;;
41693;SDS011;27377;50.666;9.150;2022-12-20T16:18:48;8.05;;;4.50;;
41693;SDS011;27377;50.666;9.150;2022-12-20T16:23:48;12.77;;;4.57;;
41693;SDS011;27377;50.666;9.150;2022-12-20T16:26:18;8.63;;;4.20;;
41693;SDS011;27377;50.666;9.150;2022-12-20T16:28:46;6.40;;;3.83;;
41693;SDS011;27377;50.666;9.150;2022-12-20T16:31:24;7.20;;;3.50;;
41693;SDS011;27377;50.666;9.150;2022-12-20T16:33:57;7.80;;;4.10;;
41693;SDS011;27377;50.666;9.150;2022-12-20T16:36:30;7.43;;;4.30;;
41693;SDS011;27377;50.666;9.150;2022-12-20T16:38:57;7.35;;;4.00;;
41693;SDS011;27377;50.666;9.150;2022-12-20T16:41:24;7.20;;;3.88;;
41693;SDS011;27377;50.666;9.150;2022-12-20T16:43:52;7.40;;;4.18;;
41693;SDS011;27377;50.666;9.150;2022-12-20T16:46:19;7.22;;;4.25;;
41693;SDS011;27377;50.666;9.150;2022-12-20T16:48:46;7.43;;;4.40;;
41693;SDS011;27377;50.666;9.150;2022-12-20T16:53:54;7.97;;;4.95;;